createdAt,value
2018-10-05T00:01:12.000Z,14.37
2018-10-05T00:03:40.808Z,13.80
2018-10-05T00:06:09.730Z,13.97
2018-10-05T00:08:38.789Z,14.40
2018-10-05T00:11:07.901Z,14.17
2018-10-05T00:13:36.828Z,14.43
2018-10-05T00:16:05.761Z,13.53
2018-10-05T00:18:34.557Z,14.43
2018-10-05T00:21:03.836Z,14.87
2018-10-05T00:23:32.679Z,14.67
2018-10-05T00:26:01.694Z,14.47
2018-10-05T00:28:30.557Z,15.63
2018-10-05T00:30:59.733Z,15.70
2018-10-05T00:33:28.610Z,14.67
2018-10-05T00:35:57.495Z,14.27
2018-10-05T00:38:26.454Z,15.23
2018-10-05T00:40:58.376Z,16.33
2018-10-05T00:43:27.696Z,15.53
2018-10-05T00:45:56.578Z,15.30
2018-10-05T00:48:25.468Z,15.80
2018-10-05T00:50:54.326Z,15.57
2018-10-05T00:53:23.251Z,16.23
2018-10-05T00:55:52.093Z,15.53
2018-10-05T00:58:21.003Z,16.13
2018-10-05T01:00:49.931Z,16.00
2018-10-05T01:03:18.844Z,15.60
2018-10-05T01:05:47.714Z,16.47
2018-10-05T01:08:16.888Z,16.50
2018-10-05T01:10:45.745Z,16.70
2018-10-05T01:13:14.613Z,15.87
2018-10-05T01:15:43.614Z,15.97
2018-10-05T01:18:12.490Z,16.20
2018-10-05T01:20:41.602Z,17.30
2018-10-05T01:23:10.530Z,16.10
2018-10-05T01:25:39.358Z,16.33
2018-10-05T01:28:08.532Z,15.73
2018-10-05T01:30:37.451Z,17.40
2018-10-05T01:33:06.455Z,16.60
2018-10-05T01:35:35.344Z,16.00
2018-10-05T01:38:04.213Z,15.93
2018-10-05T01:40:33.192Z,16.93
2018-10-05T01:43:02.071Z,17.43
2018-10-05T01:45:30.972Z,16.57
2018-10-05T01:47:59.821Z,17.57
2018-10-05T01:50:28.687Z,18.33
2018-10-05T01:52:57.565Z,19.53
2018-10-05T01:55:26.467Z,19.13
2018-10-05T01:57:55.302Z,19.67
2018-10-05T02:00:24.190Z,20.57
2018-10-05T02:02:53.326Z,19.93
2018-10-05T02:05:22.334Z,18.70
2018-10-05T02:07:51.192Z,18.50
2018-10-05T02:10:20.210Z,19.13
2018-10-05T02:12:49.048Z,18.30
2018-10-05T02:15:18.025Z,18.23
2018-10-05T02:17:46.898Z,18.57
2018-10-05T02:20:15.811Z,18.00
2018-10-05T02:22:44.612Z,18.77
2018-10-05T02:25:13.439Z,18.40
2018-10-05T02:27:42.247Z,17.70
2018-10-05T02:30:11.157Z,17.93
2018-10-05T02:32:40.043Z,18.33
2018-10-05T02:35:08.972Z,17.23
2018-10-05T02:37:37.886Z,19.07
2018-10-05T02:40:06.764Z,17.13
2018-10-05T02:42:35.724Z,18.77
2018-10-05T02:45:04.710Z,17.87
2018-10-05T02:47:33.619Z,19.27
2018-10-05T02:50:02.478Z,17.23
2018-10-05T02:52:31.332Z,19.33
2018-10-05T02:55:00.244Z,18.33
2018-10-05T02:57:29.095Z,19.40
2018-10-05T02:59:57.872Z,19.63
2018-10-05T03:02:32.732Z,20.47
2018-10-05T03:05:01.804Z,20.07
2018-10-05T03:07:31.623Z,19.37
2018-10-05T03:10:01.459Z,19.53
2018-10-05T03:12:30.288Z,19.23
2018-10-05T03:14:59.077Z,17.83
2018-10-05T03:17:28.042Z,18.67
2018-10-05T03:19:57.320Z,19.37
2018-10-05T03:22:26.183Z,18.13
2018-10-05T03:24:54.976Z,19.77
2018-10-05T03:27:23.859Z,18.73
2018-10-05T03:29:52.840Z,18.33
2018-10-05T03:32:21.680Z,18.53
2018-10-05T03:34:50.544Z,18.20
2018-10-05T03:37:19.393Z,17.47
2018-10-05T03:39:48.239Z,17.43
2018-10-05T03:42:17.136Z,17.63
2018-10-05T03:44:46.049Z,16.97
2018-10-05T03:47:14.887Z,18.77
2018-10-05T03:49:43.773Z,17.17
2018-10-05T03:52:12.652Z,17.77
2018-10-05T03:54:41.540Z,16.23
2018-10-05T03:57:10.663Z,17.07
2018-10-05T03:59:39.573Z,17.10
2018-10-05T04:02:08.420Z,16.10
2018-10-05T04:04:37.305Z,16.33
2018-10-05T04:07:06.369Z,15.37
2018-10-05T04:09:35.269Z,18.07
2018-10-05T04:12:04.166Z,16.93
2018-10-05T04:14:33.024Z,16.23
2018-10-05T04:17:01.850Z,15.77
2018-10-05T04:19:30.948Z,15.87
2018-10-05T04:21:59.812Z,16.03
2018-10-05T04:24:28.675Z,16.47
2018-10-05T04:26:57.565Z,16.97
2018-10-05T04:29:26.420Z,15.57
2018-10-05T04:31:55.528Z,16.67
2018-10-05T04:34:24.367Z,16.27
2018-10-05T04:36:53.229Z,16.27
2018-10-05T04:39:22.137Z,16.13
2018-10-05T04:41:51.131Z,15.83
2018-10-05T04:44:19.997Z,15.47
2018-10-05T04:46:48.925Z,14.97
2018-10-05T04:49:17.760Z,15.93
2018-10-05T04:51:46.665Z,14.77
2018-10-05T04:54:15.548Z,16.27
2018-10-05T04:56:44.825Z,16.80
2018-10-05T04:59:13.647Z,16.63
2018-10-05T05:01:43.008Z,16.03
2018-10-05T05:04:11.833Z,17.40
2018-10-05T05:06:40.757Z,18.10
2018-10-05T05:09:10.042Z,16.37
2018-10-05T05:11:38.954Z,15.57
2018-10-05T05:14:07.957Z,15.97
2018-10-05T05:16:36.801Z,15.63
2018-10-05T05:19:06.311Z,16.97
2018-10-05T05:21:35.332Z,16.60
2018-10-05T05:24:04.200Z,16.23
2018-10-05T05:26:33.056Z,15.70
2018-10-05T05:29:01.937Z,15.60
2018-10-05T05:31:30.780Z,14.23
2018-10-05T05:33:59.773Z,14.60
2018-10-05T05:36:28.612Z,13.63
2018-10-05T05:38:57.489Z,14.97
2018-10-05T05:41:26.314Z,15.17
2018-10-05T05:43:55.208Z,14.17
2018-10-05T05:46:24.112Z,14.10
2018-10-05T05:48:53.037Z,14.33
2018-10-05T05:51:21.895Z,14.27
2018-10-05T05:53:50.864Z,13.90
2018-10-05T05:56:19.684Z,13.97
2018-10-05T05:58:48.654Z,13.47
2018-10-05T06:01:17.538Z,14.93
2018-10-05T06:03:46.424Z,13.93
2018-10-05T06:06:15.326Z,14.03
2018-10-05T06:08:44.607Z,15.37
2018-10-05T06:11:13.868Z,14.03
2018-10-05T06:13:42.689Z,15.10
2018-10-05T06:16:11.665Z,14.57
2018-10-05T06:18:40.449Z,13.73
2018-10-05T06:21:09.347Z,14.90
2018-10-05T06:23:38.322Z,14.97
2018-10-05T06:26:07.256Z,14.67
2018-10-05T06:28:36.089Z,13.67
2018-10-05T06:31:05.054Z,13.90
2018-10-05T06:33:33.991Z,14.33
2018-10-05T06:36:02.958Z,13.07
2018-10-05T06:38:31.838Z,13.57
2018-10-05T06:41:00.781Z,13.23
2018-10-05T06:43:29.672Z,13.87
2018-10-05T06:45:58.567Z,14.27
2018-10-05T06:48:27.506Z,14.13
2018-10-05T06:50:56.472Z,14.63
2018-10-05T06:53:25.678Z,14.30
2018-10-05T06:55:54.586Z,14.93
2018-10-05T06:58:23.399Z,13.27
2018-10-05T07:00:52.416Z,13.67
2018-10-05T07:03:23.975Z,13.67
2018-10-05T07:05:53.462Z,12.00
2018-10-05T07:08:22.575Z,13.53
2018-10-05T07:10:51.557Z,12.87
2018-10-05T07:13:20.518Z,12.43
2018-10-05T07:15:49.343Z,12.53
2018-10-05T07:18:18.202Z,11.63
2018-10-05T07:20:47.100Z,11.43
2018-10-05T07:23:15.944Z,12.03
2018-10-05T07:25:45.472Z,11.20
2018-10-05T07:28:14.403Z,11.27
2018-10-05T07:30:43.263Z,11.17
2018-10-05T07:33:12.131Z,10.30
2018-10-05T07:35:41.006Z,9.90
2018-10-05T07:38:09.975Z,10.50
2018-10-05T07:40:38.830Z,10.07
2018-10-05T07:43:07.764Z,9.90
2018-10-05T07:45:36.570Z,9.60
2018-10-05T07:48:05.567Z,9.50
2018-10-05T07:50:34.533Z,8.60
2018-10-05T07:53:03.665Z,8.70
2018-10-05T07:55:32.532Z,8.60
2018-10-05T07:58:02.049Z,8.47
2018-10-05T08:00:30.893Z,8.63
2018-10-05T08:02:59.854Z,8.50
2018-10-05T08:05:28.665Z,8.57
2018-10-05T08:07:57.645Z,8.43
2018-10-05T08:10:26.538Z,8.30
2018-10-05T08:12:55.404Z,8.37
2018-10-05T08:15:24.392Z,7.80
2018-10-05T08:17:53.235Z,8.50
2018-10-05T08:20:22.215Z,7.80
2018-10-05T08:22:51.131Z,8.43
2018-10-05T08:25:20.057Z,7.83
2018-10-05T08:27:48.981Z,8.20
2018-10-05T08:30:17.856Z,7.87
2018-10-05T08:32:46.694Z,7.40
2018-10-05T08:35:15.609Z,7.10
2018-10-05T08:37:44.437Z,7.40
2018-10-05T08:40:13.399Z,7.77
2018-10-05T08:42:42.228Z,8.00
2018-10-05T08:45:11.176Z,7.57
2018-10-05T08:47:40.103Z,7.97
2018-10-05T08:50:09.038Z,7.37
2018-10-05T08:52:38.011Z,6.80
2018-10-05T08:55:07.061Z,7.00
2018-10-05T08:57:35.890Z,8.00
2018-10-05T09:00:05.376Z,7.80
2018-10-05T09:02:34.300Z,7.73
2018-10-05T09:05:03.379Z,6.87
2018-10-05T09:07:32.193Z,7.37
2018-10-05T09:10:00.969Z,7.27
2018-10-05T09:12:29.857Z,7.07
2018-10-05T09:14:59.017Z,7.07
2018-10-05T09:17:28.037Z,7.03
2018-10-05T09:19:56.890Z,6.93
2018-10-05T09:22:25.857Z,6.67
2018-10-05T09:24:55.161Z,6.73
2018-10-05T09:27:24.053Z,7.10
2018-10-05T09:29:52.962Z,7.80
2018-10-05T09:32:22.072Z,7.40
2018-10-05T09:34:50.903Z,7.27
2018-10-05T09:37:19.976Z,7.10
2018-10-05T09:39:49.075Z,7.27
2018-10-05T09:42:18.080Z,6.80
2018-10-05T09:44:46.965Z,6.57
2018-10-05T09:47:15.928Z,6.13
2018-10-05T09:49:44.734Z,6.33
2018-10-05T09:52:14.006Z,6.50
2018-10-05T09:54:43.143Z,6.43
2018-10-05T09:57:12.020Z,7.83
2018-10-05T09:59:41.256Z,6.83
2018-10-05T10:02:22.652Z,7.53
2018-10-05T10:04:51.578Z,6.80
2018-10-05T10:07:20.470Z,7.00
2018-10-05T10:09:49.342Z,6.47
2018-10-05T10:12:18.585Z,6.60
2018-10-05T10:14:47.500Z,5.97
2018-10-05T10:17:16.407Z,7.07
2018-10-05T10:19:45.237Z,6.83
2018-10-05T10:22:14.105Z,6.40
2018-10-05T10:24:43.009Z,5.93
2018-10-05T10:27:11.865Z,6.73
2018-10-05T10:29:40.788Z,6.23
2018-10-05T10:32:09.633Z,7.03
2018-10-05T10:34:38.521Z,6.17
2018-10-05T10:37:07.340Z,6.03
2018-10-05T10:39:36.220Z,5.43
2018-10-05T10:42:05.088Z,5.43
2018-10-05T10:44:33.940Z,5.70
2018-10-05T10:47:02.841Z,5.70
2018-10-05T10:49:31.698Z,5.73
2018-10-05T10:52:00.710Z,5.50
2018-10-05T10:54:29.715Z,5.80
2018-10-05T10:56:58.583Z,6.30
2018-10-05T10:59:27.445Z,5.20
2018-10-05T11:01:56.305Z,4.93
2018-10-05T11:04:25.543Z,5.00
2018-10-05T11:06:54.440Z,5.07
2018-10-05T11:09:23.313Z,5.17
2018-10-05T11:11:52.256Z,5.40
2018-10-05T11:14:21.120Z,5.07
2018-10-05T11:16:50.047Z,5.07
2018-10-05T11:19:18.965Z,6.23
2018-10-05T11:21:48.207Z,4.97
2018-10-05T11:24:17.024Z,4.70
2018-10-05T11:26:46.109Z,5.10
2018-10-05T11:29:14.971Z,4.90
2018-10-05T11:31:43.899Z,4.37
2018-10-05T11:34:12.721Z,4.70
2018-10-05T11:36:41.745Z,4.50
2018-10-05T11:39:10.592Z,4.77
2018-10-05T11:41:39.474Z,3.80
2018-10-05T11:44:08.350Z,4.03
2018-10-05T11:46:37.220Z,4.20
2018-10-05T11:49:06.224Z,4.43
2018-10-05T11:51:35.121Z,4.87
2018-10-05T11:54:04.036Z,4.83
2018-10-05T11:56:33.091Z,4.80
2018-10-05T11:59:01.915Z,3.87
2018-10-05T12:01:30.844Z,4.13
2018-10-05T12:03:59.684Z,4.37
2018-10-05T12:06:28.545Z,4.53
2018-10-05T12:08:57.485Z,4.53
2018-10-05T12:11:26.477Z,4.47
2018-10-05T12:13:55.497Z,4.17
2018-10-05T12:16:24.319Z,4.57
2018-10-05T12:18:53.196Z,4.77
2018-10-05T12:21:22.135Z,5.03
2018-10-05T12:23:51.060Z,4.33
2018-10-05T12:26:19.976Z,3.97
2018-10-05T12:28:48.889Z,4.17
2018-10-05T12:31:17.750Z,4.03
2018-10-05T12:33:46.777Z,3.97
2018-10-05T12:36:15.685Z,3.90
2018-10-05T12:38:44.632Z,3.57
2018-10-05T12:41:13.449Z,3.53
2018-10-05T12:43:42.619Z,4.03
2018-10-05T12:46:11.564Z,3.43
2018-10-05T12:48:40.476Z,3.70
2018-10-05T12:51:09.300Z,4.00
2018-10-05T12:53:38.116Z,3.00
2018-10-05T12:56:07.000Z,3.63
2018-10-05T12:58:35.911Z,3.37
2018-10-05T13:01:04.838Z,4.00
2018-10-05T13:03:33.764Z,3.47
2018-10-05T13:06:02.617Z,3.20
2018-10-05T13:08:31.435Z,3.20
2018-10-05T13:11:00.452Z,3.20
2018-10-05T13:13:29.315Z,3.20
2018-10-05T13:15:58.200Z,3.00
2018-10-05T13:18:27.029Z,2.90
2018-10-05T13:20:55.921Z,2.80
2018-10-05T13:23:24.792Z,2.40
2018-10-05T13:25:53.858Z,3.20
2018-10-05T13:28:22.810Z,3.00
2018-10-05T13:30:51.627Z,2.37
2018-10-05T13:33:20.424Z,3.13
2018-10-05T13:35:49.396Z,2.63
2018-10-05T13:38:18.234Z,2.77
2018-10-05T13:40:47.102Z,2.43
2018-10-05T13:43:16.233Z,2.80
2018-10-05T13:45:45.091Z,2.67
2018-10-05T13:48:13.954Z,2.17
2018-10-05T13:50:42.924Z,2.73
2018-10-05T13:53:11.763Z,2.70
2018-10-05T13:55:40.654Z,2.50
2018-10-05T13:58:09.507Z,2.83
2018-10-05T14:00:38.403Z,2.60
2018-10-05T14:03:07.244Z,2.00
2018-10-05T14:05:36.045Z,2.37
2018-10-05T14:08:05.294Z,2.77
2018-10-05T14:10:34.098Z,2.93
2018-10-05T14:13:03.081Z,2.27
2018-10-05T14:15:31.933Z,2.10
2018-10-05T14:18:00.851Z,2.00
2018-10-05T14:20:29.669Z,2.17
2018-10-05T14:22:58.567Z,2.03
2018-10-05T14:25:27.539Z,1.70
2018-10-05T14:27:56.413Z,1.70
2018-10-05T14:30:25.257Z,1.70
2018-10-05T14:32:54.159Z,1.70
2018-10-05T14:35:23.003Z,2.00
2018-10-05T14:37:52.234Z,2.17
2018-10-05T14:40:21.014Z,1.60
2018-10-05T14:42:49.864Z,1.70
2018-10-05T14:45:18.693Z,1.93
2018-10-05T14:47:47.511Z,2.10
2018-10-05T14:50:16.401Z,1.90
2018-10-05T14:52:45.282Z,1.63
2018-10-05T14:55:14.093Z,2.00
2018-10-05T14:57:43.440Z,1.77
2018-10-05T15:00:12.247Z,1.80
2018-10-05T15:02:41.223Z,1.63
2018-10-05T15:05:10.431Z,1.83
2018-10-05T15:07:39.229Z,2.37
2018-10-05T15:10:08.181Z,1.60
2018-10-05T15:12:37.110Z,2.03
2018-10-05T15:15:06.802Z,2.17
2018-10-05T15:17:35.642Z,1.80
2018-10-05T15:20:04.917Z,1.60
2018-10-05T15:22:33.846Z,1.60
2018-10-05T15:25:02.707Z,1.77
2018-10-05T15:27:31.961Z,1.43
2018-10-05T15:30:00.836Z,2.00
2018-10-05T15:32:29.790Z,1.73
2018-10-05T15:34:58.639Z,1.87
2018-10-05T15:37:27.469Z,2.30
2018-10-05T15:39:56.430Z,1.90
2018-10-05T15:42:25.307Z,1.60
2018-10-05T15:44:54.175Z,1.87
2018-10-05T15:47:23.055Z,1.73
2018-10-05T15:49:51.926Z,1.87
2018-10-05T15:52:20.841Z,2.00
2018-10-05T15:54:49.674Z,1.90
2018-10-05T15:57:18.522Z,2.20
2018-10-05T15:59:47.371Z,2.10
2018-10-05T16:02:16.285Z,2.20
2018-10-05T16:04:45.209Z,1.70
2018-10-05T16:07:14.084Z,1.83
2018-10-05T16:09:42.987Z,1.83
2018-10-05T16:12:11.950Z,1.70
2018-10-05T16:14:40.807Z,2.07
2018-10-05T16:17:09.766Z,1.93
2018-10-05T16:19:38.644Z,2.13
2018-10-05T16:22:07.501Z,2.90
2018-10-05T16:24:39.361Z,2.37
2018-10-05T16:27:08.683Z,3.17
2018-10-05T16:29:37.883Z,2.53
2018-10-05T16:32:07.835Z,2.97
2018-10-05T16:34:36.689Z,2.77
2018-10-05T16:37:05.993Z,2.23
2018-10-05T16:39:35.111Z,2.70
2018-10-05T16:42:04.560Z,6.17
2018-10-05T16:44:33.443Z,3.53
2018-10-05T16:47:02.375Z,3.70
2018-10-05T16:49:31.212Z,3.40
2018-10-05T16:52:00.135Z,2.80
2018-10-05T16:54:29.017Z,3.20
2018-10-05T16:56:57.943Z,3.00
2018-10-05T16:59:26.810Z,2.93
2018-10-05T17:01:55.923Z,2.60
2018-10-05T17:04:24.931Z,2.63
2018-10-05T17:06:54.105Z,4.40
2018-10-05T17:09:23.000Z,3.87
2018-10-05T17:11:51.873Z,3.73
2018-10-05T17:14:20.735Z,4.10
2018-10-05T17:16:49.560Z,4.27
2018-10-05T17:19:18.481Z,2.97
2018-10-05T17:21:47.296Z,3.20
2018-10-05T17:24:16.178Z,4.17
2018-10-05T17:26:45.020Z,7.50
2018-10-05T17:29:14.216Z,10.33
2018-10-05T17:31:43.335Z,5.50
2018-10-05T17:34:12.290Z,9.17
2018-10-05T17:36:41.175Z,4.00
2018-10-05T17:39:10.644Z,3.63
2018-10-05T17:41:39.555Z,6.50
2018-10-05T17:44:08.731Z,46.53
2018-10-05T17:46:37.593Z,10.33
2018-10-05T17:49:07.073Z,8.03
2018-10-05T17:51:36.669Z,5.67
2018-10-05T17:54:05.652Z,11.97
2018-10-05T17:56:35.079Z,3.87
2018-10-05T17:59:03.888Z,4.83
2018-10-05T18:01:32.806Z,9.23
2018-10-05T18:04:01.745Z,12.27
2018-10-05T18:06:30.891Z,9.87
2018-10-05T18:08:59.853Z,7.80
2018-10-05T18:11:28.722Z,6.33
2018-10-05T18:13:58.241Z,4.40
2018-10-05T18:16:27.137Z,5.03
2018-10-05T18:18:55.963Z,5.23
2018-10-05T18:21:26.088Z,17.37
2018-10-05T18:23:55.396Z,20.43
2018-10-05T18:26:25.528Z,18.30
2018-10-05T18:28:54.400Z,8.87
2018-10-05T18:31:23.280Z,4.87
2018-10-05T18:33:52.798Z,10.77
2018-10-05T18:36:21.747Z,12.90
2018-10-05T18:38:50.561Z,13.60
2018-10-05T18:41:20.054Z,6.23
2018-10-05T18:43:48.835Z,7.97
2018-10-05T18:46:17.856Z,5.83
2018-10-05T18:48:46.677Z,5.83
2018-10-05T18:51:15.642Z,4.80
2018-10-05T18:53:45.132Z,6.57
2018-10-05T18:56:31.153Z,9.10
2018-10-05T18:58:59.988Z,13.07
2018-10-05T19:01:28.851Z,11.40
2018-10-05T19:03:57.757Z,7.17
2018-10-05T19:06:27.525Z,6.80
2018-10-05T19:08:56.808Z,6.27
2018-10-05T19:11:25.863Z,6.37
2018-10-05T19:13:55.337Z,7.80
2018-10-05T19:16:25.441Z,6.97
2018-10-05T19:18:55.330Z,7.77
2018-10-05T19:21:24.218Z,7.33
2018-10-05T19:23:53.204Z,7.13
2018-10-05T19:26:23.213Z,7.53
2018-10-05T19:28:51.935Z,7.30
2018-10-05T19:31:20.877Z,8.87
2018-10-05T19:33:49.717Z,8.93
2018-10-05T19:36:18.603Z,8.73
2018-10-05T19:38:48.278Z,10.13
2018-10-05T19:41:17.672Z,8.73
2018-10-05T19:43:46.692Z,8.93
2018-10-05T19:46:15.590Z,8.43
2018-10-05T19:48:44.552Z,9.37
2018-10-05T19:51:13.500Z,9.03
2018-10-05T19:53:42.531Z,8.77
2018-10-05T19:56:13.257Z,7.93
2018-10-05T19:58:42.202Z,8.53
2018-10-05T20:01:11.699Z,8.00
2018-10-05T20:03:40.584Z,7.83
2018-10-05T20:06:09.456Z,7.77
2018-10-05T20:08:38.321Z,6.93
2018-10-05T20:11:08.476Z,7.53
2018-10-05T20:13:37.439Z,7.33
2018-10-05T20:16:06.375Z,7.60
2018-10-05T20:18:35.284Z,6.63
2018-10-05T20:21:04.093Z,6.93
2018-10-05T20:23:33.341Z,7.50
2018-10-05T20:26:02.956Z,6.20
2018-10-05T20:28:32.161Z,7.20
2018-10-05T20:31:01.074Z,7.77
2018-10-05T20:33:30.125Z,6.87
2018-10-05T20:35:59.033Z,8.17
2018-10-05T20:38:27.961Z,7.93
2018-10-05T20:40:56.928Z,7.43
2018-10-05T20:43:25.733Z,5.90
2018-10-05T20:45:54.690Z,7.40
2018-10-05T20:48:23.500Z,7.37
2018-10-05T20:50:52.459Z,7.10
2018-10-05T20:53:21.294Z,7.37
2018-10-05T20:55:50.140Z,7.20
2018-10-05T20:58:19.036Z,7.57
2018-10-05T21:00:47.844Z,7.37
2018-10-05T21:03:16.801Z,7.23
2018-10-05T21:05:45.800Z,7.40
2018-10-05T21:08:15.760Z,7.13
2018-10-05T21:10:44.749Z,8.10
2018-10-05T21:13:13.730Z,7.73
2018-10-05T21:15:42.625Z,7.70
2018-10-05T21:18:11.500Z,7.97
2018-10-05T21:20:40.300Z,8.20
2018-10-05T21:23:09.176Z,8.00
2018-10-05T21:25:37.986Z,8.43
2018-10-05T21:28:07.545Z,8.70
2018-10-05T21:30:36.396Z,8.53
2018-10-05T21:33:05.364Z,10.33
2018-10-05T21:35:34.299Z,10.80
2018-10-05T21:38:03.248Z,10.47
2018-10-05T21:40:32.128Z,10.87
2018-10-05T21:43:01.277Z,10.83
2018-10-05T21:45:30.127Z,9.60
2018-10-05T21:47:59.051Z,10.67
2018-10-05T21:50:27.875Z,9.67
2018-10-05T21:52:56.923Z,8.93
2018-10-05T21:55:25.787Z,9.17
2018-10-05T21:57:54.620Z,8.87
2018-10-05T22:00:23.984Z,8.63
2018-10-05T22:02:52.906Z,9.30
2018-10-05T22:05:21.811Z,9.43
2018-10-05T22:07:50.695Z,9.37
2018-10-05T22:10:19.549Z,9.23
2018-10-05T22:12:48.484Z,8.70
2018-10-05T22:15:17.380Z,9.13
2018-10-05T22:17:46.342Z,9.30
2018-10-05T22:20:15.205Z,9.00
2018-10-05T22:22:44.022Z,9.33
2018-10-05T22:25:13.196Z,9.20
2018-10-05T22:27:42.003Z,10.00
2018-10-05T22:30:10.937Z,9.20
2018-10-05T22:32:39.758Z,10.00
2018-10-05T22:35:08.691Z,9.20
2018-10-05T22:37:37.615Z,9.83
2018-10-05T22:40:06.659Z,9.03
2018-10-05T22:42:35.528Z,9.17
2018-10-05T22:45:09.361Z,9.40
2018-10-05T22:47:38.264Z,8.93
2018-10-05T22:50:07.202Z,8.77
2018-10-05T22:52:36.139Z,9.17
2018-10-05T22:55:05.121Z,8.93
2018-10-05T22:57:33.944Z,9.47
2018-10-05T23:00:02.877Z,8.93
2018-10-05T23:02:31.741Z,8.40
2018-10-05T23:05:01.208Z,8.80
2018-10-05T23:07:30.066Z,9.40
2018-10-05T23:09:58.926Z,9.30
2018-10-05T23:12:27.862Z,8.53
2018-10-05T23:14:56.770Z,8.30
2018-10-05T23:17:25.733Z,8.77
2018-10-05T23:19:54.557Z,8.50
2018-10-05T23:22:23.418Z,9.53
2018-10-05T23:24:52.343Z,8.80
2018-10-05T23:27:21.224Z,7.70
2018-10-05T23:29:50.142Z,8.27
2018-10-05T23:32:19.027Z,7.80
2018-10-05T23:34:47.845Z,8.43
2018-10-05T23:37:16.799Z,7.93
2018-10-05T23:39:45.621Z,9.50
2018-10-05T23:42:14.568Z,7.90
2018-10-05T23:44:43.409Z,7.80
2018-10-05T23:47:12.351Z,8.07
2018-10-05T23:49:41.187Z,7.40
2018-10-05T23:52:52.107Z,8.13
2018-10-05T23:55:21.118Z,7.47
2018-10-05T23:57:50.058Z,7.60
